createdAt,value
2019-05-06T00:00:20.340Z,6.44
2019-05-06T00:05:14.459Z,6.60
2019-05-06T00:10:13.438Z,6.46
2019-05-06T00:15:07.704Z,6.40
2019-05-06T00:20:04.254Z,6.33
2019-05-06T00:25:05.987Z,6.23
2019-05-06T00:30:00.186Z,6.09
2019-05-06T00:34:54.729Z,5.92
2019-05-06T00:39:59.415Z,5.95
2019-05-06T00:44:53.766Z,6.00
2019-05-06T00:49:47.741Z,5.96
2019-05-06T00:54:43.652Z,5.96
2019-05-06T00:59:37.699Z,5.84
2019-05-06T01:04:33.729Z,5.71
2019-05-06T01:09:28.848Z,5.57
2019-05-06T01:14:36.991Z,5.58
2019-05-06T01:19:30.953Z,5.85
2019-05-06T01:24:25.121Z,5.98
2019-05-06T01:29:19.186Z,5.95
2019-05-06T01:34:13.800Z,5.83
2019-05-06T01:39:18.669Z,5.87
2019-05-06T01:44:13.659Z,5.76
2019-05-06T01:49:07.806Z,5.47
2019-05-06T01:54:03.767Z,5.40
2019-05-06T01:58:57.863Z,5.25
2019-05-06T02:03:53.843Z,5.33
2019-05-06T02:08:47.942Z,5.40
2019-05-06T02:13:44.221Z,5.30
2019-05-06T02:18:38.266Z,5.43
2019-05-06T02:23:37.388Z,5.53
2019-05-06T02:28:31.443Z,5.54
2019-05-06T02:33:30.602Z,5.48
2019-05-06T02:38:34.154Z,5.53
2019-05-06T02:43:23.195Z,5.48
2019-05-06T02:48:19.401Z,5.58
2019-05-06T02:53:15.268Z,5.36
2019-05-06T02:58:09.224Z,5.24
2019-05-06T03:03:03.178Z,5.37
2019-05-06T03:07:57.839Z,5.07
2019-05-06T03:12:53.716Z,5.07
2019-05-06T03:17:47.783Z,4.98
2019-05-06T03:22:46.662Z,4.82
2019-05-06T03:27:46.485Z,4.70
2019-05-06T03:32:48.482Z,4.64
2019-05-06T03:37:33.418Z,4.65
2019-05-06T03:42:27.759Z,4.79
2019-05-06T03:47:26.757Z,4.90
2019-05-06T03:52:23.168Z,4.94
2019-05-06T03:57:17.321Z,4.76
2019-05-06T04:02:13.232Z,4.62
2019-05-06T04:07:07.450Z,4.67
2019-05-06T04:12:03.567Z,4.53
2019-05-06T04:17:03.307Z,4.80
2019-05-06T04:21:59.285Z,4.81
2019-05-06T04:27:04.724Z,5.16
2019-05-06T04:31:59.502Z,5.17
2019-05-06T04:36:53.707Z,5.37
2019-05-06T04:41:48.339Z,5.58
2019-05-06T04:46:44.386Z,5.83
2019-05-06T04:51:38.174Z,5.96
2019-05-06T04:56:33.417Z,6.04
2019-05-06T05:01:27.474Z,6.27
2019-05-06T05:06:23.139Z,6.42
2019-05-06T05:11:28.050Z,6.55
2019-05-06T05:16:23.905Z,6.84
2019-05-06T05:21:17.972Z,6.95
2019-05-06T05:26:12.138Z,7.13
2019-05-06T05:31:06.285Z,7.26
2019-05-06T05:36:02.119Z,7.41
2019-05-06T05:40:56.641Z,7.41
2019-05-06T05:45:52.361Z,7.49
2019-05-06T05:50:46.443Z,7.44
2019-05-06T05:55:42.394Z,7.79
2019-05-06T06:00:36.606Z,7.92
2019-05-06T06:05:32.498Z,7.93
2019-05-06T06:10:28.480Z,8.08
2019-05-06T06:15:36.193Z,8.28
2019-05-06T06:20:49.188Z,8.24
2019-05-06T06:25:43.481Z,8.53
2019-05-06T06:30:39.357Z,8.85
2019-05-06T06:35:37.985Z,8.74
2019-05-06T06:40:32.964Z,8.90
2019-05-06T06:45:27.113Z,9.21
2019-05-06T06:50:22.090Z,9.61
2019-05-06T06:55:18.523Z,10.04
2019-05-06T07:00:16.997Z,9.92
2019-05-06T07:05:24.901Z,10.35
2019-05-06T07:10:12.309Z,10.35
2019-05-06T07:15:06.483Z,10.50
2019-05-06T07:20:05.094Z,9.77
2019-05-06T07:24:59.177Z,9.79
2019-05-06T07:29:53.156Z,9.74
2019-05-06T07:34:47.262Z,9.73
2019-05-06T07:39:43.136Z,9.70
2019-05-06T07:44:39.013Z,10.14
2019-05-06T07:49:33.160Z,9.98
2019-05-06T07:54:27.100Z,10.14
2019-05-06T07:59:22.480Z,9.40
2019-05-06T08:04:16.821Z,9.78
2019-05-06T08:09:12.913Z,10.57
2019-05-06T08:14:07.064Z,9.83
2019-05-06T08:19:02.757Z,9.78
2019-05-06T08:23:56.821Z,10.30
2019-05-06T08:28:52.684Z,10.53
2019-05-06T08:33:46.681Z,10.51
2019-05-06T08:38:57.257Z,10.12
2019-05-06T08:43:52.813Z,9.57
2019-05-06T08:48:47.048Z,10.79
2019-05-06T08:53:43.046Z,11.63
2019-05-06T08:58:47.350Z,11.82
2019-05-06T09:03:42.312Z,11.28
2019-05-06T09:08:36.500Z,11.83
2019-05-06T09:13:32.639Z,11.93
2019-05-06T09:18:26.671Z,11.20
2019-05-06T09:23:22.649Z,11.22
2019-05-06T09:28:25.026Z,12.43
2019-05-06T09:33:22.530Z,12.04
2019-05-06T09:38:16.835Z,11.46
2019-05-06T09:43:13.014Z,10.91
2019-05-06T09:48:22.433Z,11.66
2019-05-06T09:53:23.155Z,12.00
2019-05-06T09:58:16.932Z,12.43
2019-05-06T10:03:11.220Z,12.08
2019-05-06T10:08:05.274Z,12.99
2019-05-06T10:12:59.434Z,13.24
2019-05-06T10:18:09.198Z,13.58
2019-05-06T10:23:04.874Z,13.40
2019-05-06T10:28:02.762Z,12.20
2019-05-06T10:33:02.099Z,12.76
2019-05-06T10:38:22.707Z,13.66
2019-05-06T10:43:22.051Z,13.94
2019-05-06T10:48:16.283Z,14.31
2019-05-06T10:53:18.053Z,14.41
2019-05-06T10:58:12.783Z,14.23
2019-05-06T11:03:14.465Z,13.02
2019-05-06T11:08:07.594Z,11.74
2019-05-06T11:13:03.462Z,10.78
2019-05-06T11:17:57.521Z,10.42
2019-05-06T11:22:52.870Z,10.62
2019-05-06T11:27:47.132Z,11.44
2019-05-06T11:32:44.407Z,11.74
2019-05-06T11:37:50.617Z,11.72
2019-05-06T11:42:43.648Z,13.03
2019-05-06T11:47:38.026Z,13.53
2019-05-06T11:52:34.703Z,13.21
2019-05-06T11:57:29.284Z,13.22
2019-05-06T12:02:25.456Z,12.65
2019-05-06T12:07:19.771Z,13.22
2019-05-06T12:12:14.832Z,13.45
2019-05-06T12:17:08.892Z,13.41
2019-05-06T12:22:02.976Z,13.46
2019-05-06T12:26:57.952Z,12.65
2019-05-06T12:31:53.975Z,12.61
2019-05-06T12:36:52.587Z,13.46
2019-05-06T12:41:50.485Z,13.98
2019-05-06T12:46:52.984Z,13.02
2019-05-06T12:51:47.298Z,12.94
2019-05-06T12:56:42.557Z,13.14
2019-05-06T13:01:36.823Z,13.12
2019-05-06T13:06:33.213Z,13.17
2019-05-06T13:11:26.693Z,14.45
2019-05-06T13:16:22.884Z,14.28
2019-05-06T13:21:16.893Z,13.94
2019-05-06T13:26:12.852Z,14.08
2019-05-06T13:31:17.318Z,14.90
2019-05-06T13:36:03.740Z,14.92
2019-05-06T13:40:57.929Z,13.38
2019-05-06T13:46:03.577Z,14.14
2019-05-06T13:51:03.558Z,16.01
2019-05-06T13:55:57.988Z,17.61
2019-05-06T14:00:52.703Z,20.54
2019-05-06T14:05:46.706Z,23.49
2019-05-06T14:10:42.313Z,23.40
2019-05-06T14:15:36.534Z,19.46
2019-05-06T14:20:30.528Z,22.55
2019-05-06T14:25:43.559Z,27.05
2019-05-06T14:30:39.620Z,24.04
2019-05-06T14:35:33.608Z,18.75
2019-05-06T14:40:28.082Z,17.52
2019-05-06T14:45:22.215Z,17.42
2019-05-06T14:50:16.557Z,16.73
2019-05-06T14:55:15.302Z,16.32
2019-05-06T15:00:12.099Z,14.80
2019-05-06T15:05:06.560Z,14.85
2019-05-06T15:10:17.519Z,14.97
2019-05-06T15:14:56.519Z,14.33
2019-05-06T15:19:52.606Z,13.89
2019-05-06T15:24:46.589Z,13.04
2019-05-06T15:29:42.581Z,12.62
2019-05-06T15:34:38.496Z,12.12
2019-05-06T15:39:34.462Z,11.65
2019-05-06T15:44:31.698Z,12.19
2019-05-06T15:49:24.594Z,12.13
2019-05-06T15:54:18.599Z,11.17
2019-05-06T15:59:12.624Z,10.87
2019-05-06T16:04:06.715Z,10.27
2019-05-06T16:09:03.452Z,10.41
2019-05-06T16:13:56.636Z,10.50
2019-05-06T16:18:50.615Z,10.51
2019-05-06T16:23:54.808Z,10.79
2019-05-06T16:28:48.399Z,10.65
2019-05-06T16:33:43.076Z,10.58
2019-05-06T16:38:37.295Z,10.35
2019-05-06T16:43:34.222Z,10.37
2019-05-06T16:48:27.814Z,10.37
2019-05-06T16:53:22.975Z,10.58
2019-05-06T16:58:19.152Z,10.63
2019-05-06T17:03:15.135Z,10.57
2019-05-06T17:08:09.129Z,10.55
2019-05-06T17:13:03.315Z,10.58
2019-05-06T17:17:57.447Z,10.51
2019-05-06T17:22:53.182Z,10.36
2019-05-06T17:27:49.442Z,10.27
2019-05-06T17:32:45.336Z,10.17
2019-05-06T17:37:47.032Z,10.04
2019-05-06T17:42:42.218Z,9.77
2019-05-06T17:47:38.389Z,9.41
2019-05-06T17:52:33.479Z,9.42
2019-05-06T17:57:27.693Z,9.49
2019-05-06T18:02:23.710Z,9.47
2019-05-06T18:07:17.864Z,9.28
2019-05-06T18:12:12.259Z,9.28
2019-05-06T18:17:06.359Z,9.09
2019-05-06T18:22:02.401Z,9.19
2019-05-06T18:26:56.480Z,9.36
2019-05-06T18:31:52.480Z,9.28
2019-05-06T18:36:46.491Z,9.51
2019-05-06T18:41:42.054Z,9.51
2019-05-06T18:46:36.199Z,9.49
2019-05-06T18:51:30.258Z,9.36
2019-05-06T18:56:24.270Z,9.29
2019-05-06T19:01:18.485Z,9.39
2019-05-06T19:06:12.676Z,9.33
2019-05-06T19:11:08.591Z,9.17
2019-05-06T19:16:02.892Z,9.00
2019-05-06T19:20:56.879Z,9.12
2019-05-06T19:25:51.929Z,9.00
2019-05-06T19:30:46.165Z,9.16
2019-05-06T19:35:42.712Z,9.01
2019-05-06T19:40:36.764Z,8.98
2019-05-06T19:45:34.427Z,9.04
2019-05-06T19:50:26.870Z,9.04
2019-05-06T19:55:22.970Z,8.94
2019-05-06T20:00:18.233Z,8.77
2019-05-06T20:05:17.138Z,8.80
2019-05-06T20:10:19.412Z,9.24
2019-05-06T20:15:33.700Z,8.96
2019-05-06T20:20:27.879Z,8.96
2019-05-06T20:25:22.139Z,8.97
2019-05-06T20:30:16.356Z,8.97
2019-05-06T20:35:12.852Z,9.14
2019-05-06T20:40:06.717Z,9.09
2019-05-06T20:45:02.117Z,9.15
2019-05-06T20:49:56.308Z,9.18
2019-05-06T20:54:50.290Z,9.07
2019-05-06T20:59:44.381Z,9.01
2019-05-06T21:04:38.362Z,8.92
2019-05-06T21:09:32.488Z,8.89
2019-05-06T21:14:26.462Z,8.94
2019-05-06T21:19:22.279Z,8.78
2019-05-06T21:24:16.315Z,8.85
2019-05-06T21:29:12.623Z,8.68
2019-05-06T21:34:06.230Z,8.78
2019-05-06T21:39:01.997Z,8.78
2019-05-06T21:43:56.073Z,8.77
2019-05-06T21:48:50.078Z,8.62
2019-05-06T21:53:44.142Z,8.47
2019-05-06T21:58:38.263Z,8.32
2019-05-06T22:03:32.845Z,8.26
2019-05-06T22:08:27.006Z,8.19
2019-05-06T22:13:21.863Z,8.19
2019-05-06T22:18:16.087Z,8.21
2019-05-06T22:23:10.041Z,8.11
2019-05-06T22:28:04.125Z,8.20
2019-05-06T22:32:58.076Z,8.17
2019-05-06T22:37:53.019Z,8.20
2019-05-06T22:42:47.151Z,8.09
2019-05-06T22:47:42.134Z,8.17
2019-05-06T22:52:36.281Z,8.14
2019-05-06T22:57:30.344Z,8.16
2019-05-06T23:02:29.130Z,8.18
2019-05-06T23:07:23.091Z,8.20
2019-05-06T23:12:17.245Z,8.13
2019-05-06T23:17:12.733Z,8.22
2019-05-06T23:22:06.791Z,8.20
2019-05-06T23:27:02.367Z,8.29
2019-05-06T23:31:56.744Z,8.30
2019-05-06T23:37:02.685Z,8.38
2019-05-06T23:42:34.248Z,8.52
2019-05-06T23:48:05.953Z,8.50
2019-05-06T23:53:37.822Z,8.40
2019-05-06T23:58:32.281Z,8.23
